sensor_id;sensor_type;location;lat;lon;timestamp;P1;durP1;ratioP1;P2;durP2;ratioP2
28605;SDS011;46498;49.968;7.754;2022-11-23T00:02:35;13.07;;;3.20;;
28605;SDS011;46498;49.968;7.754;2022-11-23T00:07:36;14.02;;;2.50;;
28605;SDS011;46498;49.968;7.754;2022-11-23T00:12:37;17.20;;;2.97;;
28605;SDS011;46498;49.968;7.754;2022-11-23T00:17:37;11.90;;;2.78;;
28605;SDS011;46498;49.968;7.754;2022-11-23T00:22:38;13.05;;;3.37;;
28605;SDS011;46498;49.968;7.754;2022-11-23T00:27:39;13.68;;;3.22;;
28605;SDS011;46498;49.968;7.754;2022-11-23T00:32:40;12.80;;;3.20;;
28605;SDS011;46498;49.968;7.754;2022-11-23T00:37:41;17.87;;;4.07;;
28605;SDS011;46498;49.968;7.754;2022-11-23T00:42:42;17.45;;;3.15;;
28605;SDS011;46498;49.968;7.754;2022-11-23T00:47:42;14.68;;;2.50;;
28605;SDS011;46498;49.968;7.754;2022-11-23T00:52:43;16.95;;;3.60;;
28605;SDS011;46498;49.968;7.754;2022-11-23T00:57:44;19.83;;;3.33;;
28605;SDS011;46498;49.968;7.754;2022-11-23T01:02:45;15.10;;;3.03;;
28605;SDS011;46498;49.968;7.754;2022-11-23T01:07:46;19.35;;;2.97;;
28605;SDS011;46498;49.968;7.754;2022-11-23T01:12:46;12.50;;;3.05;;
28605;SDS011;46498;49.968;7.754;2022-11-23T01:17:48;15.43;;;3.58;;
28605;SDS011;46498;49.968;7.754;2022-11-23T01:22:50;14.13;;;3.70;;
28605;SDS011;46498;49.968;7.754;2022-11-23T01:27:51;17.77;;;3.65;;
28605;SDS011;46498;49.968;7.754;2022-11-23T01:32:55;20.42;;;3.78;;
28605;SDS011;46498;49.968;7.754;2022-11-23T01:37:56;19.70;;;3.80;;
28605;SDS011;46498;49.968;7.754;2022-11-23T01:42:57;23.12;;;4.55;;
28605;SDS011;46498;49.968;7.754;2022-11-23T01:53:02;15.88;;;4.05;;
28605;SDS011;46498;49.968;7.754;2022-11-23T01:58:03;14.18;;;3.35;;
28605;SDS011;46498;49.968;7.754;2022-11-23T02:03:09;17.27;;;3.75;;
28605;SDS011;46498;49.968;7.754;2022-11-23T02:08:10;22.08;;;4.15;;
28605;SDS011;46498;49.968;7.754;2022-11-23T02:13:13;13.77;;;3.62;;
28605;SDS011;46498;49.968;7.754;2022-11-23T02:18:15;17.27;;;3.40;;
28605;SDS011;46498;49.968;7.754;2022-11-23T02:31:37;17.05;;;3.37;;
28605;SDS011;46498;49.968;7.754;2022-11-23T02:36:45;15.73;;;3.72;;
28605;SDS011;46498;49.968;7.754;2022-11-23T02:41:49;15.82;;;3.92;;
28605;SDS011;46498;49.968;7.754;2022-11-23T02:51:52;21.50;;;4.70;;
28605;SDS011;46498;49.968;7.754;2022-11-23T02:56:53;23.20;;;4.47;;
28605;SDS011;46498;49.968;7.754;2022-11-23T03:01:54;25.12;;;4.70;;
28605;SDS011;46498;49.968;7.754;2022-11-23T03:06:55;13.25;;;3.40;;
28605;SDS011;46498;49.968;7.754;2022-11-23T03:11:56;18.10;;;3.72;;
28605;SDS011;46498;49.968;7.754;2022-11-23T03:16:58;19.42;;;3.95;;
28605;SDS011;46498;49.968;7.754;2022-11-23T03:22:00;17.70;;;3.80;;
28605;SDS011;46498;49.968;7.754;2022-11-23T03:27:04;18.10;;;3.95;;
28605;SDS011;46498;49.968;7.754;2022-11-23T03:32:07;23.80;;;4.05;;
28605;SDS011;46498;49.968;7.754;2022-11-23T03:37:08;17.77;;;3.62;;
28605;SDS011;46498;49.968;7.754;2022-11-23T03:42:10;19.87;;;4.00;;
28605;SDS011;46498;49.968;7.754;2022-11-23T03:47:10;15.52;;;4.85;;
28605;SDS011;46498;49.968;7.754;2022-11-23T03:52:11;19.60;;;4.65;;
28605;SDS011;46498;49.968;7.754;2022-11-23T03:57:12;19.90;;;4.40;;
28605;SDS011;46498;49.968;7.754;2022-11-23T04:02:14;14.85;;;4.78;;
28605;SDS011;46498;49.968;7.754;2022-11-23T04:07:21;15.80;;;4.40;;
28605;SDS011;46498;49.968;7.754;2022-11-23T04:17:25;20.08;;;4.03;;
28605;SDS011;46498;49.968;7.754;2022-11-23T04:22:26;17.45;;;4.32;;
28605;SDS011;46498;49.968;7.754;2022-11-23T04:27:27;22.58;;;3.72;;
28605;SDS011;46498;49.968;7.754;2022-11-23T04:32:28;19.17;;;3.90;;
28605;SDS011;46498;49.968;7.754;2022-11-23T04:37:29;15.88;;;3.05;;
28605;SDS011;46498;49.968;7.754;2022-11-23T04:42:31;20.80;;;3.92;;
28605;SDS011;46498;49.968;7.754;2022-11-23T04:47:33;21.33;;;3.65;;
28605;SDS011;46498;49.968;7.754;2022-11-23T04:52:36;25.05;;;4.03;;
28605;SDS011;46498;49.968;7.754;2022-11-23T04:57:40;23.75;;;4.35;;
28605;SDS011;46498;49.968;7.754;2022-11-23T05:02:41;29.83;;;4.70;;
28605;SDS011;46498;49.968;7.754;2022-11-23T05:07:52;26.42;;;4.43;;
28605;SDS011;46498;49.968;7.754;2022-11-23T05:12:56;23.67;;;3.78;;
28605;SDS011;46498;49.968;7.754;2022-11-23T05:18:03;22.30;;;4.10;;
28605;SDS011;46498;49.968;7.754;2022-11-23T05:23:06;29.05;;;4.18;;
28605;SDS011;46498;49.968;7.754;2022-11-23T05:28:11;27.55;;;4.30;;
28605;SDS011;46498;49.968;7.754;2022-11-23T05:33:40;29.42;;;4.70;;
28605;SDS011;46498;49.968;7.754;2022-11-23T05:38:42;21.15;;;4.90;;
28605;SDS011;46498;49.968;7.754;2022-11-23T05:43:47;20.70;;;4.93;;
28605;SDS011;46498;49.968;7.754;2022-11-23T05:48:52;19.33;;;5.07;;
28605;SDS011;46498;49.968;7.754;2022-11-23T05:53:53;24.63;;;5.18;;
28605;SDS011;46498;49.968;7.754;2022-11-23T05:59:11;22.83;;;4.78;;
28605;SDS011;46498;49.968;7.754;2022-11-23T06:04:13;21.95;;;6.25;;
28605;SDS011;46498;49.968;7.754;2022-11-23T06:09:18;20.77;;;3.83;;
28605;SDS011;46498;49.968;7.754;2022-11-23T06:14:19;26.48;;;4.82;;
28605;SDS011;46498;49.968;7.754;2022-11-23T06:19:21;20.85;;;4.20;;
28605;SDS011;46498;49.968;7.754;2022-11-23T06:24:22;19.27;;;4.75;;
28605;SDS011;46498;49.968;7.754;2022-11-23T06:29:36;26.35;;;4.10;;
28605;SDS011;46498;49.968;7.754;2022-11-23T06:34:37;21.58;;;4.97;;
28605;SDS011;46498;49.968;7.754;2022-11-23T06:39:38;26.62;;;5.03;;
28605;SDS011;46498;49.968;7.754;2022-11-23T06:44:41;19.50;;;5.05;;
28605;SDS011;46498;49.968;7.754;2022-11-23T06:49:41;16.62;;;5.65;;
28605;SDS011;46498;49.968;7.754;2022-11-23T06:54:56;21.58;;;4.97;;
28605;SDS011;46498;49.968;7.754;2022-11-23T06:59:58;29.25;;;5.35;;
28605;SDS011;46498;49.968;7.754;2022-11-23T07:05:05;24.05;;;5.15;;
28605;SDS011;46498;49.968;7.754;2022-11-23T07:10:07;27.37;;;5.10;;
28605;SDS011;46498;49.968;7.754;2022-11-23T07:16:08;19.30;;;4.35;;
28605;SDS011;46498;49.968;7.754;2022-11-23T07:21:11;19.70;;;4.28;;
28605;SDS011;46498;49.968;7.754;2022-11-23T07:26:12;27.92;;;4.80;;
28605;SDS011;46498;49.968;7.754;2022-11-23T07:31:13;22.73;;;4.72;;
28605;SDS011;46498;49.968;7.754;2022-11-23T07:36:15;21.85;;;4.47;;
28605;SDS011;46498;49.968;7.754;2022-11-23T07:41:17;17.52;;;4.50;;
28605;SDS011;46498;49.968;7.754;2022-11-23T07:46:29;25.07;;;4.80;;
28605;SDS011;46498;49.968;7.754;2022-11-23T07:51:31;20.25;;;4.10;;
28605;SDS011;46498;49.968;7.754;2022-11-23T07:56:32;26.25;;;4.43;;
28605;SDS011;46498;49.968;7.754;2022-11-23T08:01:32;23.48;;;4.55;;
28605;SDS011;46498;49.968;7.754;2022-11-23T08:06:33;17.77;;;4.68;;
28605;SDS011;46498;49.968;7.754;2022-11-23T08:11:34;22.13;;;5.03;;
28605;SDS011;46498;49.968;7.754;2022-11-23T08:16:35;19.48;;;5.03;;
28605;SDS011;46498;49.968;7.754;2022-11-23T08:21:35;20.62;;;4.90;;
28605;SDS011;46498;49.968;7.754;2022-11-23T08:26:36;15.13;;;4.35;;
28605;SDS011;46498;49.968;7.754;2022-11-23T08:31:37;23.70;;;4.70;;
28605;SDS011;46498;49.968;7.754;2022-11-23T08:36:38;20.88;;;4.70;;
28605;SDS011;46498;49.968;7.754;2022-11-23T08:41:39;37.97;;;12.40;;
28605;SDS011;46498;49.968;7.754;2022-11-23T08:46:41;20.60;;;4.65;;
28605;SDS011;46498;49.968;7.754;2022-11-23T08:51:41;15.65;;;4.40;;
28605;SDS011;46498;49.968;7.754;2022-11-23T08:56:50;20.52;;;3.92;;
28605;SDS011;46498;49.968;7.754;2022-11-23T09:01:51;24.63;;;5.87;;
28605;SDS011;46498;49.968;7.754;2022-11-23T09:06:52;22.45;;;4.68;;
28605;SDS011;46498;49.968;7.754;2022-11-23T09:11:53;29.23;;;5.97;;
28605;SDS011;46498;49.968;7.754;2022-11-23T09:16:54;23.92;;;3.05;;
28605;SDS011;46498;49.968;7.754;2022-11-23T09:21:55;19.45;;;2.50;;
28605;SDS011;46498;49.968;7.754;2022-11-23T09:26:55;20.48;;;6.62;;
28605;SDS011;46498;49.968;7.754;2022-11-23T09:31:56;15.90;;;4.60;;
28605;SDS011;46498;49.968;7.754;2022-11-23T09:36:57;18.85;;;3.30;;
28605;SDS011;46498;49.968;7.754;2022-11-23T09:42:02;17.00;;;2.42;;
28605;SDS011;46498;49.968;7.754;2022-11-23T09:47:23;14.80;;;2.80;;
28605;SDS011;46498;49.968;7.754;2022-11-23T09:53:59;15.05;;;3.83;;
28605;SDS011;46498;49.968;7.754;2022-11-23T09:59:11;17.67;;;2.37;;
28605;SDS011;46498;49.968;7.754;2022-11-23T10:04:21;19.87;;;2.60;;
28605;SDS011;46498;49.968;7.754;2022-11-23T10:09:27;15.15;;;1.95;;
28605;SDS011;46498;49.968;7.754;2022-11-23T10:23:46;10.15;;;1.90;;
28605;SDS011;46498;49.968;7.754;2022-11-23T10:29:58;17.08;;;2.67;;
28605;SDS011;46498;49.968;7.754;2022-11-23T10:35:04;10.35;;;1.87;;
28605;SDS011;46498;49.968;7.754;2022-11-23T10:45:33;9.55;;;1.90;;
28605;SDS011;46498;49.968;7.754;2022-11-23T10:50:35;12.65;;;2.37;;
28605;SDS011;46498;49.968;7.754;2022-11-23T10:55:50;14.40;;;2.65;;
28605;SDS011;46498;49.968;7.754;2022-11-23T11:00:58;14.48;;;2.28;;
28605;SDS011;46498;49.968;7.754;2022-11-23T11:06:03;16.05;;;2.40;;
28605;SDS011;46498;49.968;7.754;2022-11-23T11:11:20;11.88;;;2.62;;
28605;SDS011;46498;49.968;7.754;2022-11-23T11:16:27;12.48;;;2.10;;
28605;SDS011;46498;49.968;7.754;2022-11-23T11:21:32;13.43;;;1.80;;
28605;SDS011;46498;49.968;7.754;2022-11-23T11:26:34;10.20;;;1.62;;
28605;SDS011;46498;49.968;7.754;2022-11-23T11:31:55;9.07;;;1.70;;
28605;SDS011;46498;49.968;7.754;2022-11-23T11:48:26;9.88;;;1.52;;
28605;SDS011;46498;49.968;7.754;2022-11-23T11:54:17;10.32;;;1.50;;
28605;SDS011;46498;49.968;7.754;2022-11-23T12:00:59;8.75;;;1.70;;
28605;SDS011;46498;49.968;7.754;2022-11-23T12:11:32;9.90;;;1.73;;
28605;SDS011;46498;49.968;7.754;2022-11-23T12:22:42;9.37;;;1.40;;
28605;SDS011;46498;49.968;7.754;2022-11-23T12:37:55;12.45;;;1.58;;
28605;SDS011;46498;49.968;7.754;2022-11-23T12:43:24;9.88;;;1.98;;
28605;SDS011;46498;49.968;7.754;2022-11-23T12:57:00;7.53;;;1.55;;
28605;SDS011;46498;49.968;7.754;2022-11-23T13:09:14;9.63;;;1.48;;
28605;SDS011;46498;49.968;7.754;2022-11-23T13:26:28;15.68;;;1.40;;
28605;SDS011;46498;49.968;7.754;2022-11-23T13:31:33;9.25;;;1.40;;
28605;SDS011;46498;49.968;7.754;2022-11-23T13:36:36;13.13;;;1.60;;
28605;SDS011;46498;49.968;7.754;2022-11-23T13:42:13;9.10;;;1.12;;
28605;SDS011;46498;49.968;7.754;2022-11-23T13:47:17;8.55;;;1.90;;
28605;SDS011;46498;49.968;7.754;2022-11-23T13:57:31;16.08;;;7.57;;
28605;SDS011;46498;49.968;7.754;2022-11-23T14:02:31;11.65;;;2.25;;
28605;SDS011;46498;49.968;7.754;2022-11-23T14:07:38;9.25;;;1.60;;
28605;SDS011;46498;49.968;7.754;2022-11-23T14:12:47;12.45;;;3.85;;
28605;SDS011;46498;49.968;7.754;2022-11-23T14:18:51;7.55;;;1.15;;
28605;SDS011;46498;49.968;7.754;2022-11-23T14:24:29;8.15;;;2.03;;
28605;SDS011;46498;49.968;7.754;2022-11-23T14:50:21;9.55;;;1.52;;
28605;SDS011;46498;49.968;7.754;2022-11-23T14:55:24;10.67;;;1.83;;
28605;SDS011;46498;49.968;7.754;2022-11-23T15:00:31;11.68;;;1.50;;
28605;SDS011;46498;49.968;7.754;2022-11-23T15:05:36;11.20;;;2.05;;
28605;SDS011;46498;49.968;7.754;2022-11-23T15:10:43;7.80;;;1.73;;
28605;SDS011;46498;49.968;7.754;2022-11-23T15:15:52;11.15;;;1.55;;
28605;SDS011;46498;49.968;7.754;2022-11-23T15:20:56;9.93;;;1.48;;
28605;SDS011;46498;49.968;7.754;2022-11-23T15:26:03;8.60;;;2.05;;
28605;SDS011;46498;49.968;7.754;2022-11-23T15:36:30;11.80;;;1.93;;
28605;SDS011;46498;49.968;7.754;2022-11-23T15:41:36;7.65;;;1.40;;
28605;SDS011;46498;49.968;7.754;2022-11-23T15:46:38;10.02;;;1.60;;
28605;SDS011;46498;49.968;7.754;2022-11-23T15:51:41;7.17;;;1.57;;
28605;SDS011;46498;49.968;7.754;2022-11-23T15:56:44;7.30;;;1.45;;
28605;SDS011;46498;49.968;7.754;2022-11-23T16:01:49;11.45;;;1.65;;
28605;SDS011;46498;49.968;7.754;2022-11-23T16:06:51;13.65;;;1.98;;
28605;SDS011;46498;49.968;7.754;2022-11-23T16:11:52;10.70;;;1.75;;
28605;SDS011;46498;49.968;7.754;2022-11-23T16:17:02;6.50;;;1.52;;
28605;SDS011;46498;49.968;7.754;2022-11-23T16:22:06;7.53;;;1.75;;
28605;SDS011;46498;49.968;7.754;2022-11-23T16:27:20;9.50;;;1.62;;
28605;SDS011;46498;49.968;7.754;2022-11-23T16:32:27;5.40;;;1.10;;
28605;SDS011;46498;49.968;7.754;2022-11-23T16:37:29;5.50;;;1.10;;
28605;SDS011;46498;49.968;7.754;2022-11-23T16:42:30;11.73;;;1.45;;
28605;SDS011;46498;49.968;7.754;2022-11-23T16:47:31;7.22;;;1.15;;
28605;SDS011;46498;49.968;7.754;2022-11-23T16:52:33;8.10;;;1.40;;
28605;SDS011;46498;49.968;7.754;2022-11-23T16:57:34;10.38;;;1.35;;
28605;SDS011;46498;49.968;7.754;2022-11-23T17:07:38;6.70;;;1.48;;
28605;SDS011;46498;49.968;7.754;2022-11-23T17:12:39;8.82;;;1.37;;
28605;SDS011;46498;49.968;7.754;2022-11-23T17:17:49;9.50;;;2.10;;
28605;SDS011;46498;49.968;7.754;2022-11-23T17:22:49;7.05;;;1.52;;
28605;SDS011;46498;49.968;7.754;2022-11-23T17:27:50;8.98;;;2.85;;
28605;SDS011;46498;49.968;7.754;2022-11-23T17:32:52;7.85;;;1.40;;
28605;SDS011;46498;49.968;7.754;2022-11-23T17:37:53;7.78;;;1.50;;
28605;SDS011;46498;49.968;7.754;2022-11-23T17:42:54;5.20;;;1.20;;
28605;SDS011;46498;49.968;7.754;2022-11-23T17:47:55;5.05;;;1.45;;
28605;SDS011;46498;49.968;7.754;2022-11-23T17:53:02;6.62;;;2.47;;
28605;SDS011;46498;49.968;7.754;2022-11-23T17:58:03;6.43;;;1.52;;
28605;SDS011;46498;49.968;7.754;2022-11-23T18:03:05;5.37;;;1.30;;
28605;SDS011;46498;49.968;7.754;2022-11-23T18:08:06;7.25;;;2.17;;
28605;SDS011;46498;49.968;7.754;2022-11-23T18:13:07;5.57;;;2.20;;
28605;SDS011;46498;49.968;7.754;2022-11-23T18:18:08;15.05;;;6.53;;
28605;SDS011;46498;49.968;7.754;2022-11-23T18:23:09;6.80;;;3.45;;
28605;SDS011;46498;49.968;7.754;2022-11-23T18:28:11;5.07;;;2.92;;
28605;SDS011;46498;49.968;7.754;2022-11-23T18:33:15;10.45;;;3.40;;
28605;SDS011;46498;49.968;7.754;2022-11-23T18:38:16;9.00;;;3.37;;
28605;SDS011;46498;49.968;7.754;2022-11-23T18:43:17;13.48;;;5.50;;
28605;SDS011;46498;49.968;7.754;2022-11-23T18:48:17;10.40;;;4.20;;
28605;SDS011;46498;49.968;7.754;2022-11-23T18:53:18;8.30;;;3.70;;
28605;SDS011;46498;49.968;7.754;2022-11-23T18:58:19;6.15;;;2.97;;
28605;SDS011;46498;49.968;7.754;2022-11-23T19:03:20;8.93;;;2.20;;
28605;SDS011;46498;49.968;7.754;2022-11-23T19:08:21;8.40;;;3.10;;
28605;SDS011;46498;49.968;7.754;2022-11-23T19:13:21;6.60;;;3.25;;
28605;SDS011;46498;49.968;7.754;2022-11-23T19:18:22;7.50;;;2.37;;
28605;SDS011;46498;49.968;7.754;2022-11-23T19:23:23;7.15;;;2.28;;
28605;SDS011;46498;49.968;7.754;2022-11-23T19:28:32;5.05;;;2.22;;
28605;SDS011;46498;49.968;7.754;2022-11-23T19:33:33;3.87;;;2.03;;
28605;SDS011;46498;49.968;7.754;2022-11-23T19:38:34;22.92;;;9.13;;
28605;SDS011;46498;49.968;7.754;2022-11-23T19:43:35;10.82;;;4.18;;
28605;SDS011;46498;49.968;7.754;2022-11-23T19:48:36;8.48;;;1.75;;
28605;SDS011;46498;49.968;7.754;2022-11-23T19:53:39;4.43;;;1.98;;
28605;SDS011;46498;49.968;7.754;2022-11-23T19:58:41;5.03;;;1.42;;
28605;SDS011;46498;49.968;7.754;2022-11-23T20:03:43;9.85;;;2.12;;
28605;SDS011;46498;49.968;7.754;2022-11-23T20:08:46;12.20;;;3.80;;
28605;SDS011;46498;49.968;7.754;2022-11-23T20:13:53;8.38;;;1.98;;
28605;SDS011;46498;49.968;7.754;2022-11-23T20:18:55;13.07;;;2.30;;
28605;SDS011;46498;49.968;7.754;2022-11-23T20:24:05;9.25;;;1.70;;
28605;SDS011;46498;49.968;7.754;2022-11-23T20:29:11;10.20;;;2.28;;
28605;SDS011;46498;49.968;7.754;2022-11-23T20:34:13;12.93;;;2.50;;
28605;SDS011;46498;49.968;7.754;2022-11-23T20:39:20;10.63;;;2.20;;
28605;SDS011;46498;49.968;7.754;2022-11-23T20:44:21;13.48;;;2.30;;
28605;SDS011;46498;49.968;7.754;2022-11-23T20:49:23;22.92;;;3.33;;
28605;SDS011;46498;49.968;7.754;2022-11-23T20:54:24;18.92;;;2.90;;
28605;SDS011;46498;49.968;7.754;2022-11-23T20:59:25;19.12;;;3.08;;
28605;SDS011;46498;49.968;7.754;2022-11-23T21:04:25;30.20;;;5.75;;
28605;SDS011;46498;49.968;7.754;2022-11-23T21:09:28;56.63;;;8.27;;
28605;SDS011;46498;49.968;7.754;2022-11-23T21:14:29;23.35;;;4.00;;
28605;SDS011;46498;49.968;7.754;2022-11-23T21:24:35;31.70;;;7.07;;
28605;SDS011;46498;49.968;7.754;2022-11-23T21:29:37;16.67;;;2.80;;
28605;SDS011;46498;49.968;7.754;2022-11-23T21:34:38;25.65;;;3.85;;
28605;SDS011;46498;49.968;7.754;2022-11-23T21:39:39;20.58;;;3.45;;
28605;SDS011;46498;49.968;7.754;2022-11-23T21:44:40;19.55;;;3.25;;
28605;SDS011;46498;49.968;7.754;2022-11-23T21:49:41;21.37;;;3.22;;
28605;SDS011;46498;49.968;7.754;2022-11-23T21:54:42;24.17;;;3.08;;
28605;SDS011;46498;49.968;7.754;2022-11-23T21:59:49;28.83;;;4.35;;
28605;SDS011;46498;49.968;7.754;2022-11-23T22:04:50;25.85;;;3.60;;
28605;SDS011;46498;49.968;7.754;2022-11-23T22:09:50;24.25;;;3.42;;
28605;SDS011;46498;49.968;7.754;2022-11-23T22:14:51;21.62;;;3.95;;
28605;SDS011;46498;49.968;7.754;2022-11-23T22:19:53;20.75;;;3.55;;
28605;SDS011;46498;49.968;7.754;2022-11-23T22:24:54;16.67;;;2.95;;
28605;SDS011;46498;49.968;7.754;2022-11-23T22:29:54;16.73;;;3.17;;
28605;SDS011;46498;49.968;7.754;2022-11-23T22:34:55;32.70;;;3.95;;
28605;SDS011;46498;49.968;7.754;2022-11-23T22:39:56;28.20;;;4.15;;
28605;SDS011;46498;49.968;7.754;2022-11-23T22:44:57;18.15;;;3.50;;
28605;SDS011;46498;49.968;7.754;2022-11-23T22:49:58;22.45;;;2.83;;
28605;SDS011;46498;49.968;7.754;2022-11-23T22:54:59;21.08;;;3.67;;
28605;SDS011;46498;49.968;7.754;2022-11-23T23:00:00;25.85;;;3.97;;
28605;SDS011;46498;49.968;7.754;2022-11-23T23:05:01;25.73;;;3.58;;
28605;SDS011;46498;49.968;7.754;2022-11-23T23:10:02;32.47;;;3.80;;
28605;SDS011;46498;49.968;7.754;2022-11-23T23:15:03;19.15;;;3.17;;
28605;SDS011;46498;49.968;7.754;2022-11-23T23:20:05;19.30;;;3.70;;
28605;SDS011;46498;49.968;7.754;2022-11-23T23:25:07;24.67;;;4.32;;
28605;SDS011;46498;49.968;7.754;2022-11-23T23:30:09;23.38;;;4.28;;
28605;SDS011;46498;49.968;7.754;2022-11-23T23:35:10;24.23;;;5.55;;
28605;SDS011;46498;49.968;7.754;2022-11-23T23:40:11;42.92;;;6.43;;
28605;SDS011;46498;49.968;7.754;2022-11-23T23:45:11;25.60;;;4.05;;
28605;SDS011;46498;49.968;7.754;2022-11-23T23:50:13;27.70;;;4.07;;
28605;SDS011;46498;49.968;7.754;2022-11-23T23:55:14;44.10;;;7.90;;
